NCAR-RAP Real-Time Weather Data

Output produced by METARs form (19 October 2020  16:14 UTC)
found at http://weather.rap.ucar.edu/surface/
 
Conditions at: KSPI observed 19 October 2020  15:52 UTC
Temperature: 7.2°C (45°F)
Dewpoint: 3.9°C (39°F) [RH = 80%]
Pressure (altimeter): 30.20 inches Hg (1022.8 mb)
[Sea-level pressure: 1023.0 mb]
Winds: from the E (80 degrees) at 9 MPH (8 knots; 4.2 m/s)
Visibility: 10 or more miles (16+ km)
Ceiling: 3900 feet AGL
Clouds: overcast cloud deck at 3900 feet AGL
Present Weather: no significant weather observed at this time
KSPI 191552Z 08008KT 10SM OVC039 07/04 A3020 RMK AO2 SLP230 T00720039